Zakirovskiy Airport

Jump to: basic info | weather | comments

Related pages: nearby airports | nearby navaids

Basic information (top)

Location: lon 43.448002, lat 77.049599, elev 2,038 ft / 621 m msl
Status: small_airport

Weather (top)

Current conditions for Almaty Airport 6nm (11km) S (rec'd 2014/10/22 22:00Z):

UAAA 222200Z VRB01MPS 5000 BR FU FEW200 07/04 Q1011 R88/65D NOSIG

Airport forecast for Almaty Airport 6nm (11km) S (rec'd 2014/10/22 18:18Z):

TAF TAF UAAA 221700Z 2218/2318 16004MPS 3000 BR FU NSC TX22/2308Z TN04/2301Z 
      BECMG 2303/2304 23006MPS 9999 NSW SCT050CB BKN100 
      TEMPO 2306/2312 VRB12MPS TSRA SQ BKN050CB BKN100 
      TEMPO 2312/2318 32012MPS 1000 SHRA BR BKN010CB OVC100

Latest comments (top)

No comments yet for Zakirovskiy Airport

More... (top)

See also NOTAMs and nearby airports and navaids, or visit the Zakirovskiy Airport page at the main OurAirports website..